Time;durP1;ratioP1;P1;durP2;ratioP2;P2;SDS_P1;SDS_P2;PMS_P1;PMS_P2;Temp;Humidity;BMP_temperature;BMP_pressure;BME280_temperature;BME280_humidity;BME280_pressure;Samples;Min_cycle;Max_cycle;Signal;HPM_P1;HPM_P2
2022/05/03 00:00:04;;;;;;;5.40;3.10;;;;;;;9.23;52.60;99490.55;109412;1274;22472;-64
2022/05/03 00:02:58;;;;;;;6.40;3.20;;;;;;;9.26;52.23;99480.73;109227;1274;138113;-64
2022/05/03 00:05:40;;;;;;;4.00;2.70;;;;;;;9.31;51.88;99483.93;109427;1274;23742;-64
2022/05/03 00:08:14;;;;;;;6.40;3.00;;;;;;;9.35;51.72;99481.55;109194;1274;139049;-64
2022/05/03 00:11:16;;;;;;;5.70;3.20;;;;;;;9.39;51.39;99479.62;109449;1273;22381;-64
2022/05/03 00:13:55;;;;;;;10.50;3.90;;;;;;;9.43;51.36;99476.86;108614;1281;138326;-64
2022/05/03 00:16:23;;;;;;;6.50;2.80;;;;;;;9.47;51.25;99476.22;106501;1281;25395;-63
2022/05/03 00:18:51;;;;;;;5.00;2.90;;;;;;;9.52;50.97;99477.30;108431;1281;139117;-64
2022/05/03 00:21:19;;;;;;;4.80;2.90;;;;;;;9.56;50.94;99472.61;108514;1283;22464;-64
2022/05/03 00:23:47;;;;;;;4.70;2.90;;;;;;;9.59;51.17;99474.78;108668;1281;23240;-64
2022/05/03 00:26:15;;;;;;;3.80;2.80;;;;;;;9.62;51.28;99472.92;108530;1281;137128;-64
2022/05/03 00:28:43;;;;;;;5.20;2.90;;;;;;;9.65;51.22;99470.34;108581;1283;23286;-64
2022/05/03 00:31:11;;;;;;;4.70;2.80;;;;;;;9.68;51.44;99472.02;108522;1281;138217;-64
2022/05/03 00:33:40;;;;;;;4.80;3.10;;;;;;;9.71;51.28;99470.19;108671;1281;22457;-64
2022/05/03 00:36:08;;;;;;;4.40;2.50;;;;;;;9.73;51.08;99468.75;108328;1284;22438;-64
2022/05/03 00:38:38;;;;;;;4.70;2.80;;;;;;;9.76;50.95;99463.41;108599;1281;137914;-64
2022/05/03 00:41:06;;;;;;;5.60;3.10;;;;;;;9.80;51.24;99464.65;108639;1281;22470;-64
2022/05/03 00:43:55;;;;;;;4.20;2.70;;;;;;;9.83;51.92;99467.98;108286;1283;138825;-64
2022/05/03 00:46:25;;;;;;;5.70;2.70;;;;;;;9.84;51.09;99467.40;108661;1281;22476;-64
2022/05/03 00:49:00;;;;;;;6.70;3.00;;;;;;;9.85;51.01;99467.58;108228;1284;137153;-64
2022/05/03 00:51:35;;;;;;;5.90;3.30;;;;;;;9.87;51.54;99463.14;109095;1274;22458;-64
2022/05/03 00:54:25;;;;;;;5.10;3.00;;;;;;;9.87;52.60;99466.19;109315;1274;22553;-64
2022/05/03 00:57:17;;;;;;;8.90;3.00;;;;;;;9.81;53.24;99461.17;109105;1274;138172;-64
2022/05/03 00:59:51;;;;;;;5.00;3.00;;;;;;;9.74;53.09;99456.36;108847;1280;23547;-64
2022/05/03 01:02:27;;;;;;;6.40;2.80;;;;;;;9.70;53.37;99456.25;108688;1280;137130;-64
2022/05/03 01:05:06;;;;;;;6.30;2.80;;;;;;;9.66;54.12;99454.69;108906;1280;22496;-64
2022/05/03 01:07:44;;;;;;;4.70;2.90;;;;;;;9.61;54.26;99454.45;108749;1280;137398;-64
2022/05/03 01:10:31;;;;;;;6.90;3.40;;;;;;;9.59;54.24;99454.91;108860;1280;23378;-64
2022/05/03 01:13:03;;;;;;;5.40;2.80;;;;;;;9.58;54.26;99453.61;108750;1280;139102;-64
2022/05/03 01:15:33;;;;;;;4.60;2.50;;;;;;;9.59;54.06;99455.41;108914;1278;22432;-64
2022/05/03 01:18:10;;;;;;;6.00;3.40;;;;;;;9.60;54.16;99453.80;108905;1279;22274;-64
2022/05/03 01:21:06;;;;;;;4.80;2.90;;;;;;;9.63;53.71;99451.17;108757;1280;137321;-64
2022/05/03 01:23:57;;;;;;;4.90;2.60;;;;;;;9.66;53.22;99446.95;108254;1285;22458;-64
2022/05/03 01:26:37;;;;;;;3.80;2.70;;;;;;;9.70;53.25;99445.76;108168;1287;139591;-64
2022/05/03 01:29:17;;;;;;;5.30;2.90;;;;;;;9.74;52.94;99444.77;108237;1286;22507;-64
2022/05/03 01:31:46;;;;;;;4.00;2.80;;;;;;;9.79;53.00;99445.00;107988;1287;137601;-64
2022/05/03 01:34:17;;;;;;;4.50;3.20;;;;;;;9.83;53.14;99443.06;108222;1286;22620;-64
2022/05/03 01:37:00;;;;;;;5.30;3.30;;;;;;;9.87;53.21;99443.13;107990;1284;138504;-64
2022/05/03 01:39:45;;;;;;;6.30;3.00;;;;;;;9.90;53.10;99446.97;108602;1281;22533;-64
2022/05/03 01:42:28;;;;;;;4.30;2.70;;;;;;;9.94;52.12;99448.33;108459;1282;23321;-64
2022/05/03 01:45:10;;;;;;;6.90;3.40;;;;;;;9.99;51.67;99448.95;108467;1281;137444;-64
2022/05/03 01:47:43;;;;;;;5.60;2.70;;;;;;;10.04;51.97;99448.86;108618;1281;23238;-64
2022/05/03 01:50:19;;;;;;;7.70;3.20;;;;;;;10.09;51.92;99444.95;108440;1281;137485;-64
2022/05/03 01:53:05;;;;;;;7.80;3.40;;;;;;;10.13;52.40;99441.21;108692;1281;22334;-64
2022/05/03 01:55:48;;;;;;;6.70;3.60;;;;;;;10.17;52.48;99445.39;108485;1282;137626;-64
2022/05/03 01:58:29;;;;;;;4.90;3.10;;;;;;;10.18;52.37;99445.53;108697;1281;22449;-64
2022/05/03 02:01:36;;;;;;;11.60;2.90;;;;;;;10.19;51.99;99442.63;108709;1276;138401;-64
2022/05/03 02:04:16;;;;;;;5.40;3.20;;;;;;;10.20;51.81;99434.90;109237;1274;22430;-64
2022/05/03 02:06:56;;;;;;;6.40;3.40;;;;;;;10.21;52.76;99431.31;109142;1274;137963;-64
2022/05/03 02:09:45;;;;;;;5.10;3.00;;;;;;;10.19;53.42;99434.17;109307;1274;23721;-64
2022/05/03 02:12:18;;;;;;;5.90;3.30;;;;;;;10.14;53.51;99430.34;109298;1275;23306;-64
2022/05/03 02:14:53;;;;;;;11.00;3.70;;;;;;;10.11;53.91;99433.51;109127;1274;137258;-64
2022/05/03 02:17:42;;;;;;;5.20;3.40;;;;;;;10.08;53.33;99429.14;109303;1274;22448;-64
2022/05/03 02:20:31;;;;;;;6.60;3.40;;;;;;;10.07;53.22;99433.60;109176;1274;137297;-64
2022/05/03 02:23:17;;;;;;;4.20;2.90;;;;;;;10.07;53.01;99431.09;109403;1274;22391;-64
2022/05/03 02:25:54;;;;;;;7.90;3.40;;;;;;;10.06;53.17;99429.28;109097;1276;138738;-64
2022/05/03 02:28:37;;;;;;;;;;;;;;;10.03;53.02;99434.86;109344;1273;22726;-64
2022/05/03 02:31:08;;;;;;;6.20;3.20;;;;;;;10.01;52.99;99431.56;109323;1274;124276;-64
2022/05/03 02:34:00;;;;;;;6.80;3.30;;;;;;;10.02;53.32;99429.02;109331;1274;22451;-64
2022/05/03 02:36:28;;;;;;;6.80;3.50;;;;;;;10.00;54.12;99423.50;109365;1274;22422;-64
2022/05/03 02:39:06;;;;;;;10.60;3.70;;;;;;;9.99;54.49;99428.60;109017;1274;138267;-64
2022/05/03 02:41:39;;;;;;;4.30;2.90;;;;;;;9.99;55.15;99439.16;109434;1273;22440;-64
2022/05/03 02:44:07;;;;;;;5.10;2.90;;;;;;;9.98;55.04;99437.03;109338;1273;138071;-63
2022/05/03 02:46:47;;;;;;;7.20;3.30;;;;;;;9.97;54.36;99435.87;109472;1272;23108;-63
2022/05/03 02:49:20;;;;;;;6.40;3.30;;;;;;;9.97;53.88;99432.44;109353;1273;137343;-64
2022/05/03 02:52:15;;;;;;;6.90;3.70;;;;;;;9.97;53.68;99436.30;109351;1274;22529;-63
2022/05/03 02:55:01;;;;;;;7.50;3.90;;;;;;;9.99;54.07;99435.89;109234;1273;137414;-63
2022/05/03 02:57:38;;;;;;;6.30;3.30;;;;;;;9.97;54.79;99439.14;109412;1274;22316;-63
2022/05/03 03:03:03;;;;;;;7.20;3.90;;;;;;;9.93;54.61;99433.19;109349;1274;138330;-63
2022/05/03 03:05:31;;;;;;;6.70;3.60;;;;;;;9.93;54.97;99428.55;109269;1274;22522;-63
2022/05/03 03:08:03;;;;;;;7.10;3.40;;;;;;;9.92;55.01;99431.38;109241;1273;139823;-63
2022/05/03 03:10:38;;;;;;;6.20;4.40;;;;;;;9.94;55.43;99436.62;109252;1273;22543;-63
2022/05/03 03:13:36;;;;;;;8.40;4.60;;;;;;;9.97;55.44;99433.58;109183;1274;139226;-63
2022/05/03 03:16:10;;;;;;;7.50;5.00;;;;;;;9.97;54.82;99430.75;109250;1274;22251;-63
2022/05/03 03:18:38;;;;;;;8.40;3.30;;;;;;;9.95;54.07;99427.09;109355;1274;22449;-63
2022/05/03 03:21:06;;;;;;;5.90;3.60;;;;;;;10.01;53.77;99427.36;109351;1273;138119;-64
2022/05/03 03:23:35;;;;;;;4.00;3.40;;;;;;;10.06;54.00;99427.91;109210;1274;23599;-64
2022/05/03 03:26:04;;;;;;;5.80;3.40;;;;;;;10.09;54.04;99433.56;109280;1274;138560;-63
2022/05/03 03:28:32;;;;;;;6.40;3.50;;;;;;;10.12;54.02;99442.52;109248;1274;23277;-63
2022/05/03 03:31:00;;;;;;;8.00;4.50;;;;;;;10.16;54.02;99439.13;109124;1274;138347;-63
2022/05/03 03:33:28;;;;;;;12.40;6.40;;;;;;;10.19;53.96;99445.13;109233;1274;22453;-64
2022/05/03 03:35:56;;;;;;;8.30;3.50;;;;;;;10.24;54.20;99449.47;109311;1274;22385;-64
2022/05/03 03:38:27;;;;;;;7.20;3.10;;;;;;;10.29;54.28;99433.72;109175;1274;137283;-64
2022/05/03 03:40:56;;;;;;;9.40;4.10;;;;;;;10.45;54.93;99429.52;109185;1274;22439;-64
2022/05/03 03:43:24;;;;;;;10.70;4.60;;;;;;;10.59;55.83;99430.83;109198;1274;137592;-64
2022/05/03 03:45:52;;;;;;;9.10;4.40;;;;;;;10.71;55.59;99430.15;109254;1275;22484;-64
2022/05/03 03:48:20;;;;;;;8.10;4.40;;;;;;;10.79;55.11;99430.33;109281;1274;22472;-64
2022/05/03 03:50:48;;;;;;;6.80;3.30;;;;;;;10.87;54.25;99423.23;109290;1274;137762;-64
2022/05/03 03:53:16;;;;;;;6.80;3.50;;;;;;;10.97;53.53;99423.30;109263;1274;22857;-65
2022/05/03 03:55:44;;;;;;;5.40;2.80;;;;;;;11.10;53.25;99435.00;109280;1274;138189;-65
2022/05/03 03:58:13;;;;;;;6.10;3.00;;;;;;;11.21;52.88;99437.30;109291;1274;23513;-65
2022/05/03 04:00:41;;;;;;;5.60;3.20;;;;;;;11.31;52.68;99436.70;109273;1274;23314;-65
2022/05/03 04:03:10;;;;;;;5.20;2.90;;;;;;;11.41;52.11;99435.92;109109;1275;137394;-65
2022/05/03 04:05:38;;;;;;;5.50;3.20;;;;;;;11.47;52.09;99436.23;109200;1274;22500;-65
2022/05/03 04:08:06;;;;;;;10.40;3.50;;;;;;;11.52;52.04;99436.00;109284;1274;138585;-65
2022/05/03 04:10:36;;;;;;;7.70;3.50;;;;;;;11.56;51.67;99434.36;109335;1274;22517;-65
2022/05/03 04:13:05;;;;;;;5.60;3.40;;;;;;;11.61;51.48;99435.37;109261;1274;138543;-65
2022/05/03 04:15:33;;;;;;;11.40;3.30;;;;;;;11.64;51.38;99433.36;109287;1274;22409;-65
2022/05/03 04:18:06;;;;;;;7.20;3.40;;;;;;;11.69;51.76;99435.50;109293;1274;22424;-65
2022/05/03 04:20:35;;;;;;;11.20;3.70;;;;;;;11.72;51.51;99435.36;109255;1274;138382;-65
2022/05/03 04:23:03;;;;;;;6.30;4.10;;;;;;;11.75;51.66;99437.41;109375;1272;22400;-65
2022/05/03 04:25:32;;;;;;;16.60;5.20;;;;;;;11.76;52.31;99432.90;109262;1274;138450;-64
2022/05/03 04:28:00;;;;;;;18.80;4.30;;;;;;;11.77;52.12;99435.63;109374;1274;22566;-65
2022/05/03 04:30:28;;;;;;;9.90;3.90;;;;;;;11.78;52.03;99429.42;109392;1274;22423;-65
2022/05/03 04:32:56;;;;;;;8.20;3.60;;;;;;;11.80;52.25;99429.70;109280;1274;137791;-65
2022/05/03 04:35:24;;;;;;;5.60;3.20;;;;;;;11.82;52.04;99430.64;109397;1274;23274;-64
2022/05/03 04:37:52;;;;;;;6.70;3.50;;;;;;;11.86;52.20;99430.58;109292;1274;138165;-65
2022/05/03 04:40:20;;;;;;;7.30;3.10;;;;;;;11.92;52.74;99427.38;109348;1274;23059;-65
2022/05/03 04:42:48;;;;;;;5.00;3.30;;;;;;;12.00;52.51;99423.52;109071;1274;318564;-64
2022/05/03 04:46:39;;;;;;;5.70;3.70;;;;;;;12.16;52.45;99428.14;101734;1309;557205;-64
2022/05/03 04:49:06;;;;;;;6.50;3.30;;;;;;;12.28;52.77;99421.66;108316;1284;137284;-64
2022/05/03 04:51:38;;;;;;;5.70;3.20;;;;;;;12.40;52.50;99417.02;108244;1286;22536;-65
2022/05/03 04:54:05;;;;;;;8.80;3.20;;;;;;;12.51;52.55;99415.66;108159;1287;22714;-63
2022/05/03 04:56:32;;;;;;;4.60;3.00;;;;;;;12.61;52.15;99417.84;108124;1286;137642;-65
2022/05/03 04:59:01;;;;;;;7.70;3.20;;;;;;;12.74;51.67;99415.48;107834;1284;598355;-65
2022/05/03 05:01:28;;;;;;;4.30;2.60;;;;;;;12.88;51.38;99414.48;108389;1283;137360;-65
2022/05/03 05:03:55;;;;;;;10.20;3.40;;;;;;;13.02;50.94;99411.51;108555;1283;22507;-65
2022/05/03 05:06:22;;;;;;;;;;;;;;;13.18;50.70;99411.88;108470;1284;22446;-65
2022/05/03 05:08:49;;;;;;;10.40;2.70;;;;;;;13.33;50.89;99410.74;108297;1284;124104;-65
2022/05/03 05:11:15;;;;;;;7.70;2.80;;;;;;;13.48;50.76;99410.91;108403;1285;22579;-65
2022/05/03 05:13:42;;;;;;;5.70;3.10;;;;;;;13.62;50.15;99411.62;108401;1284;138016;-65
2022/05/03 05:16:09;;;;;;;3.90;3.00;;;;;;;13.76;50.07;99410.41;107009;1281;22576;-65
2022/05/03 05:18:36;;;;;;;;;;;;;;;13.86;49.94;99401.87;108684;1281;23887;-65
2022/05/03 05:21:03;;;;;;;3.00;2.20;;;;;;;14.04;49.75;99409.21;108165;1280;123151;-63
2022/05/03 05:23:30;;;;;;;4.50;2.30;;;;;;;14.16;49.35;99413.62;104648;1281;24234;-64
2022/05/03 05:25:56;;;;;;;8.10;3.50;;;;;;;14.28;48.93;99415.48;104371;1281;137215;-64
2022/05/03 05:28:23;;;;;;;5.20;2.90;;;;;;;14.37;48.42;99412.67;104274;1282;24393;-64
2022/05/03 05:30:51;;;;;;;6.80;2.70;;;;;;;14.43;48.35;99410.17;104349;1281;137154;-63
2022/05/03 05:33:18;;;;;;;4.00;2.60;;;;;;;14.53;48.25;99414.22;108882;1281;23301;-64
2022/05/03 05:35:45;;;;;;;7.30;2.70;;;;;;;14.59;47.73;99410.33;108699;1281;22512;-65
2022/05/03 05:38:16;;;;;;;3.90;2.30;;;;;;;14.66;47.78;99413.89;108571;1282;138555;-65
2022/05/03 05:40:44;;;;;;;4.50;2.70;;;;;;;14.74;47.79;99415.56;108884;1280;22802;-64
2022/05/03 05:43:10;;;;;;;4.40;2.60;;;;;;;14.84;47.76;99415.48;108570;1281;137187;-64
2022/05/03 05:45:38;;;;;;;;;;;;;;;14.94;47.32;99417.15;108838;1281;22579;-64
2022/05/03 05:48:05;;;;;;;6.20;3.50;;;;;;;15.01;47.05;99413.01;108800;1279;22418;-64
2022/05/03 05:50:32;;;;;;;6.50;2.90;;;;;;;15.09;47.24;99412.66;108601;1281;136932;-64
2022/05/03 05:55:44;;;;;;;7.50;1.90;;;;;;;15.30;47.41;99403.97;108719;1281;123997;-64
2022/05/03 05:58:10;;;;;;;2.80;1.80;;;;;;;15.40;46.73;99403.59;108661;1282;22445;-64
2022/05/03 06:00:38;;;;;;;6.50;2.60;;;;;;;15.49;45.80;99404.02;108840;1280;22431;-64
2022/05/03 06:03:05;;;;;;;;;;;;;;;15.53;44.85;99399.77;108781;1281;136554;-64
2022/05/03 06:05:32;;;;;;;4.60;1.70;;;;;;;15.61;44.58;99402.41;108597;1281;22548;-64
2022/05/03 06:08:00;;;;;;;3.20;1.90;;;;;;;15.66;44.05;99407.09;108721;1281;137796;-64
2022/05/03 06:10:30;;;;;;;3.10;2.00;;;;;;;15.68;43.42;99404.38;108834;1280;22465;-64
2022/05/03 06:12:59;;;;;;;6.30;2.30;;;;;;;15.69;43.32;99407.17;108571;1284;137396;-64
2022/05/03 06:15:25;;;;;;;4.20;2.30;;;;;;;15.68;43.39;99410.42;108342;1281;22571;-64
2022/05/03 06:17:53;;;;;;;4.30;2.40;;;;;;;15.68;43.60;99404.71;108864;1281;23204;-64
2022/05/03 06:20:19;;;;;;;2.50;1.80;;;;;;;15.67;43.74;99406.69;108591;1281;136967;-64
2022/05/03 06:22:48;;;;;;;4.70;2.00;;;;;;;15.67;43.89;99402.85;108576;1283;22441;-64
2022/05/03 06:25:14;;;;;;;8.60;2.20;;;;;;;15.68;43.51;99409.11;108745;1278;138191;-64
2022/05/03 06:27:41;;;;;;;6.80;2.20;;;;;;;15.68;43.42;99404.59;108874;1281;23049;-64
2022/05/03 06:30:08;;;;;;;8.50;2.10;;;;;;;15.69;43.40;99407.72;108882;1281;22459;-64
2022/05/03 06:32:39;;;;;;;2.80;2.30;;;;;;;15.69;43.28;99407.72;108711;1281;138536;-64
2022/05/03 06:35:07;;;;;;;3.70;2.00;;;;;;;15.70;43.67;99408.96;108887;1281;23318;-64
2022/05/03 06:37:37;;;;;;;4.20;2.40;;;;;;;15.71;44.43;99406.97;108759;1281;139120;-64
2022/05/03 06:40:08;;;;;;;3.40;2.20;;;;;;;15.75;44.59;99405.86;108842;1280;22469;-64
2022/05/03 06:42:38;;;;;;;5.50;1.90;;;;;;;15.77;43.86;99404.19;108878;1280;23571;-64
2022/05/03 06:45:06;;;;;;;3.80;2.30;;;;;;;15.79;44.09;99404.93;108751;1281;137164;-64
2022/05/03 06:47:44;;;;;;;4.70;2.80;;;;;;;15.83;44.41;99403.79;109170;1277;22553;-64
2022/05/03 06:50:11;;;;;;;4.20;2.20;;;;;;;15.88;44.30;99401.40;108895;1279;138720;-64
2022/05/03 06:52:38;;;;;;;6.20;2.20;;;;;;;15.92;44.10;99401.34;109204;1276;23599;-65
2022/05/03 06:55:05;;;;;;;5.90;2.70;;;;;;;15.96;43.63;99399.33;109064;1277;138203;-63
2022/05/03 06:57:32;;;;;;;8.30;2.40;;;;;;;16.01;43.81;99396.08;109090;1277;22420;-64
2022/05/03 07:00:01;;;;;;;5.90;2.30;;;;;;;16.06;43.70;99398.06;109046;1277;23242;-65
2022/05/03 07:02:32;;;;;;;7.90;2.40;;;;;;;16.12;43.35;99397.11;109162;1276;138554;-64
2022/05/03 07:04:59;;;;;;;4.40;2.10;;;;;;;16.20;43.28;99397.70;109249;1276;22441;-64
2022/05/03 07:07:29;;;;;;;4.60;2.40;;;;;;;16.27;43.10;99398.15;109113;1276;137674;-64
2022/05/03 07:09:56;;;;;;;7.00;2.40;;;;;;;16.35;42.87;99400.06;109244;1276;23193;-65
2022/05/03 07:12:22;;;;;;;3.20;1.90;;;;;;;16.41;43.26;99403.45;109053;1276;22505;-65
2022/05/03 07:14:51;;;;;;;5.80;2.30;;;;;;;16.45;42.39;99406.87;109080;1276;137038;-65
2022/05/03 07:22:50;;;;;;;4.80;2.80;;;;;;;16.51;42.29;99402.98;109251;1276;22534;-65
2022/05/03 07:25:17;;;;;;;3.40;2.40;;;;;;;16.51;42.78;99403.60;109093;1276;137062;-65
2022/05/03 07:27:45;;;;;;;3.90;2.80;;;;;;;16.49;42.75;99398.89;109081;1277;22460;-65
2022/05/03 07:30:15;;;;;;;5.60;3.10;;;;;;;16.47;42.03;99405.91;109220;1276;22493;-65
2022/05/03 07:32:42;;;;;;;8.00;2.70;;;;;;;16.45;41.81;99407.86;109112;1276;137786;-65
2022/05/03 07:35:09;;;;;;;6.40;2.30;;;;;;;16.45;41.73;99411.46;109259;1276;22447;-65
2022/05/03 07:37:38;;;;;;;7.60;2.10;;;;;;;16.44;41.92;99407.13;109146;1276;137800;-65
2022/05/03 07:40:05;;;;;;;4.20;2.20;;;;;;;16.44;42.23;99405.09;109257;1276;22423;-65
2022/05/03 07:42:33;;;;;;;4.00;2.40;;;;;;;16.45;42.80;99402.52;109271;1276;23221;-65
2022/05/03 07:45:00;;;;;;;5.30;2.40;;;;;;;16.44;42.42;99401.40;109074;1276;137086;-65
2022/05/03 07:47:27;;;;;;;4.00;2.20;;;;;;;16.46;42.60;99399.70;109141;1276;23254;-65
2022/05/03 07:49:53;;;;;;;11.80;3.20;;;;;;;16.48;42.77;99397.91;109157;1276;137754;-65
2022/05/03 07:52:20;;;;;;;4.20;3.10;;;;;;;16.50;43.19;99398.83;109237;1276;22413;-65
2022/05/03 07:54:47;;;;;;;5.80;2.50;;;;;;;16.52;43.38;99396.27;109115;1276;138852;-65
2022/05/03 07:57:13;;;;;;;;;;;;;;;16.54;43.60;99395.85;109255;1276;22423;-65
2022/05/03 07:59:41;;;;;;;4.30;2.50;;;;;;;16.56;43.73;99391.33;109224;1276;22220;-65
2022/05/03 08:02:07;;;;;;;6.10;2.50;;;;;;;16.57;43.49;99388.33;109124;1276;137288;-65
2022/05/03 08:04:34;;;;;;;7.00;2.30;;;;;;;16.60;43.87;99389.15;109087;1277;22494;-65
2022/05/03 08:07:02;;;;;;;4.40;2.30;;;;;;;16.65;43.61;99386.40;109101;1277;138365;-65
2022/05/03 08:09:29;;;;;;;4.10;2.30;;;;;;;16.71;43.52;99384.94;109234;1276;22439;-65
2022/05/03 08:11:57;;;;;;;4.50;2.60;;;;;;;16.78;44.05;99380.60;109168;1277;22410;-65
2022/05/03 08:14:23;;;;;;;4.20;2.20;;;;;;;16.85;43.78;99372.67;109131;1276;137120;-65
2022/05/03 08:16:50;;;;;;;5.10;2.30;;;;;;;16.99;43.79;99376.22;109040;1276;22443;-65
2022/05/03 08:19:17;;;;;;;7.70;2.80;;;;;;;17.10;43.48;99373.09;108969;1276;138016;-65
2022/05/03 08:21:43;;;;;;;6.20;2.10;;;;;;;17.20;43.29;99377.89;109219;1276;22440;-65
2022/05/03 08:24:10;;;;;;;7.40;2.60;;;;;;;17.30;41.63;99372.41;109249;1275;22436;-65
2022/05/03 08:26:36;;;;;;;6.60;2.40;;;;;;;17.37;40.55;99371.29;108942;1277;137148;-65
2022/05/03 08:29:03;;;;;;;;;;;;;;;17.42;40.17;99370.94;109191;1276;22498;-65
2022/05/03 08:31:29;;;;;;;6.10;2.50;;;;;;;17.45;40.30;99365.90;109108;1276;124029;-65
2022/05/03 08:34:02;;;;;;;2.70;2.20;;;;;;;17.48;40.47;99362.74;109189;1276;23217;-65
2022/05/03 08:36:29;;;;;;;5.00;3.20;;;;;;;17.52;40.69;99363.04;109241;1276;23257;-65
2022/05/03 08:44:30;;;;;;;3.10;2.00;;;;;;;17.69;40.13;99339.30;108947;1276;139063;-65
2022/05/03 08:46:58;;;;;;;3.70;2.40;;;;;;;17.77;39.95;99336.73;109202;1275;23303;-65
2022/05/03 08:49:25;;;;;;;4.70;2.20;;;;;;;17.86;39.70;99334.33;109148;1276;138302;-65
2022/05/03 08:51:52;;;;;;;3.20;2.40;;;;;;;17.95;40.42;99331.26;108990;1277;22587;-64
2022/05/03 08:54:20;;;;;;;5.30;2.30;;;;;;;18.02;39.74;99327.23;109264;1275;22582;-64
2022/05/03 08:56:48;;;;;;;8.00;1.70;;;;;;;18.10;38.77;99326.45;109096;1276;137705;-64
2022/05/03 08:59:15;;;;;;;9.20;2.80;;;;;;;18.12;38.10;99324.25;108965;1277;22424;-64
2022/05/03 09:01:42;;;;;;;3.20;1.90;;;;;;;18.19;37.25;99330.09;109138;1276;137252;-64
2022/05/03 09:04:09;;;;;;;4.60;2.30;;;;;;;18.16;36.39;99325.74;109163;1276;22506;-66
2022/05/03 09:06:46;;;;;;;7.30;1.80;;;;;;;18.16;37.10;99324.83;109223;1276;22525;-64
2022/05/03 09:09:13;;;;;;;3.50;1.90;;;;;;;18.17;37.83;99321.27;109002;1276;137214;-65
2022/05/03 09:11:46;;;;;;;2.40;1.60;;;;;;;18.22;37.91;99316.16;109224;1276;22442;-65
2022/05/03 09:14:35;;;;;;;4.00;1.60;;;;;;;18.28;37.51;99311.71;109104;1276;137318;-65
2022/05/03 09:17:02;;;;;;;2.50;1.60;;;;;;;18.36;37.43;99304.45;105774;1276;25463;-65
2022/05/03 09:19:29;;;;;;;2.10;1.60;;;;;;;18.43;37.01;99301.42;109100;1276;138988;-65
2022/05/03 09:25:04;;;;;;;4.00;2.10;;;;;;;18.54;36.70;99298.91;109000;1276;22500;-65
2022/05/03 09:27:31;;;;;;;4.30;2.40;;;;;;;18.57;36.30;99292.22;109150;1276;137105;-65
2022/05/03 09:30:01;;;;;;;2.90;1.70;;;;;;;18.59;36.72;99289.93;109238;1276;23148;-65
2022/05/03 09:32:35;;;;;;;3.90;1.80;;;;;;;18.60;36.93;99287.54;108940;1276;137992;-65
2022/05/03 09:35:02;;;;;;;3.00;1.80;;;;;;;18.58;37.14;99283.16;109227;1276;22464;-65
2022/05/03 09:37:39;;;;;;;7.10;2.10;;;;;;;18.58;37.41;99277.71;109069;1276;137538;-65
2022/05/03 09:40:10;;;;;;;5.20;1.90;;;;;;;18.63;37.41;99270.95;109219;1276;22632;-65
2022/05/03 09:42:38;;;;;;;5.80;2.10;;;;;;;18.68;37.26;99274.29;109174;1276;23540;-64
2022/05/03 09:45:08;;;;;;;3.40;2.10;;;;;;;18.72;36.95;99264.90;108957;1276;137930;-64
2022/05/03 09:47:56;;;;;;;4.50;2.40;;;;;;;18.78;37.50;99259.98;109219;1276;23489;-65
2022/05/03 09:50:27;;;;;;;2.70;2.30;;;;;;;18.85;37.61;99254.89;109017;1276;137324;-65
2022/05/03 09:52:55;;;;;;;4.40;2.30;;;;;;;18.91;36.40;99252.00;109237;1276;22411;-65
2022/05/03 09:55:31;;;;;;;4.90;1.80;;;;;;;18.97;36.37;99245.10;109275;1274;139226;-65
2022/05/03 09:58:04;;;;;;;3.00;2.00;;;;;;;19.03;36.84;99243.60;109308;1275;23264;-65
2022/05/03 10:00:33;;;;;;;3.40;2.00;;;;;;;19.09;36.49;99243.19;109208;1275;22511;-65
2022/05/03 10:03:01;;;;;;;6.80;2.00;;;;;;;19.13;36.80;99234.63;109220;1275;138443;-65
2022/05/03 10:05:28;;;;;;;3.50;1.80;;;;;;;19.23;36.98;99234.88;109281;1274;22441;-65
2022/05/03 10:07:56;;;;;;;4.30;2.30;;;;;;;19.31;36.09;99229.48;109251;1275;138398;-64
2022/05/03 10:10:23;;;;;;;3.50;2.30;;;;;;;19.34;35.85;99228.23;109186;1275;22468;-65
2022/05/03 10:12:50;;;;;;;3.90;2.10;;;;;;;19.39;35.73;99225.05;109370;1275;22424;-65
2022/05/03 10:21:13;;;;;;;5.40;2.10;;;;;;;19.40;34.47;99209.65;109194;1274;139329;-64
2022/05/03 10:23:40;;;;;;;5.50;2.50;;;;;;;19.38;33.94;99207.88;109176;1276;22459;-65
2022/05/03 10:26:10;;;;;;;5.80;2.30;;;;;;;19.35;34.10;99207.16;109273;1274;137471;-65
2022/05/03 10:29:07;;;;;;;5.40;2.30;;;;;;;19.32;34.71;99202.63;109340;1276;22481;-65
2022/05/03 10:31:56;;;;;;;4.40;2.20;;;;;;;19.30;34.75;99196.36;109256;1274;139190;-65
2022/05/03 10:34:45;;;;;;;11.20;2.50;;;;;;;19.29;34.73;99196.48;109139;1275;23254;-65
2022/05/03 10:37:38;;;;;;;2.90;2.00;;;;;;;19.27;34.83;99197.71;109174;1275;137502;-64
2022/05/03 10:40:09;;;;;;;5.00;2.50;;;;;;;19.23;34.74;99191.79;108723;1280;22311;-65
2022/05/03 10:42:38;;;;;;;3.40;2.70;;;;;;;19.24;34.82;99192.98;108683;1281;22489;-64
2022/05/03 10:45:07;;;;;;;4.00;2.60;;;;;;;19.25;34.64;99187.11;108719;1280;138628;-65
2022/05/03 10:47:45;;;;;;;7.50;3.20;;;;;;;19.27;35.49;99180.52;108853;1280;22513;-65
2022/05/03 10:50:12;;;;;;;12.50;2.30;;;;;;;19.33;35.32;99177.56;108745;1280;138093;-65
2022/05/03 10:52:39;;;;;;;5.10;2.80;;;;;;;19.43;35.36;99178.97;108582;1281;23321;-65
2022/05/03 10:55:12;;;;;;;2.80;2.50;;;;;;;19.54;35.47;99178.96;108500;1280;139138;-64
2022/05/03 10:58:15;;;;;;;5.20;1.90;;;;;;;19.64;35.94;99177.14;108800;1281;23300;-65
2022/05/03 11:01:04;;;;;;;5.10;2.20;;;;;;;19.73;35.42;99177.30;108784;1280;22549;-65
2022/05/03 11:03:40;;;;;;;8.30;2.20;;;;;;;19.75;35.05;99166.80;108736;1281;137308;-65
2022/05/03 11:06:19;;;;;;;5.60;2.50;;;;;;;19.70;35.11;99163.25;108779;1280;22438;-65
2022/05/03 11:09:04;;;;;;;8.10;2.00;;;;;;;19.64;34.39;99162.17;108660;1281;138917;-65
2022/05/03 11:11:35;;;;;;;3.90;2.50;;;;;;;19.57;33.81;99157.94;108778;1280;22569;-65
2022/05/03 11:14:02;;;;;;;9.40;2.40;;;;;;;19.51;33.43;99158.41;108656;1281;137495;-64
2022/05/03 11:16:34;;;;;;;4.60;2.20;;;;;;;19.48;33.71;99147.21;108703;1275;22544;-65
2022/05/03 11:19:15;;;;;;;7.60;2.20;;;;;;;19.46;33.89;99142.80;109313;1275;22643;-65
2022/05/03 11:21:42;;;;;;;4.40;2.30;;;;;;;19.46;34.09;99139.48;109212;1274;137493;-65
2022/05/03 11:24:22;;;;;;;5.50;3.70;;;;;;;19.46;33.12;99135.67;109320;1275;23248;-65
2022/05/03 11:26:50;;;;;;;20.70;3.60;;;;;;;19.43;32.61;99126.52;109251;1274;138468;-65
2022/05/03 11:29:17;;;;;;;8.10;2.80;;;;;;;19.41;33.55;99130.98;109297;1275;22533;-65
2022/05/03 11:31:48;;;;;;;9.80;2.50;;;;;;;19.42;33.95;99130.08;109086;1276;137668;-65
2022/05/03 11:34:15;;;;;;;4.20;2.30;;;;;;;19.44;34.18;99130.14;109341;1275;23229;-65
2022/05/03 11:36:46;;;;;;;3.50;2.30;;;;;;;19.46;32.63;99124.85;109188;1275;22464;-65
2022/05/03 11:39:14;;;;;;;3.60;2.10;;;;;;;19.49;32.76;99122.70;109160;1275;137499;-65
2022/05/03 11:41:42;;;;;;;3.50;2.40;;;;;;;19.52;32.65;99120.89;109243;1276;22497;-65
2022/05/03 11:44:09;;;;;;;3.30;2.20;;;;;;;19.55;32.64;99122.45;109218;1275;138406;-65
2022/05/03 11:46:37;;;;;;;2.50;2.20;;;;;;;19.56;32.61;99121.81;109165;1276;23497;-64
2022/05/03 11:49:05;;;;;;;4.00;2.00;;;;;;;19.57;32.66;99124.39;109322;1275;22498;-65
2022/05/03 11:57:14;;;;;;;8.40;2.70;;;;;;;19.52;32.74;99111.66;105588;1276;137749;-64
2022/05/03 11:59:41;;;;;;;3.80;2.20;;;;;;;19.52;33.13;99117.84;104611;1278;26704;-64
2022/05/03 12:02:15;;;;;;;8.90;2.60;;;;;;;19.54;32.94;99111.89;104795;1276;137278;-64
2022/05/03 12:05:04;;;;;;;5.40;2.80;;;;;;;19.55;33.11;99115.21;109319;1275;22407;-66
2022/05/03 12:07:36;;;;;;;4.50;1.80;;;;;;;19.56;32.78;99112.31;109186;1274;137604;-63
2022/05/03 12:10:18;;;;;;;4.10;2.10;;;;;;;19.53;32.35;99105.78;109348;1276;22402;-64
2022/05/03 12:12:44;;;;;;;5.20;2.20;;;;;;;19.49;32.35;99102.23;109331;1274;22463;-64
2022/05/03 12:15:21;;;;;;;7.40;2.20;;;;;;;19.47;33.02;99095.63;109231;1275;139610;-64
2022/05/03 12:18:02;;;;;;;9.00;2.80;;;;;;;19.44;33.34;99095.44;109319;1274;22409;-64